スィクティフカル の空港の天気 - METARとTAF

Syktyvkar ( UUYY / SCW ) - ロシア スィクティフカル
飛行場実況気象(Metar)
観測時間05/23 21:30 MSK (05/23 18:30 UTC)
風向・風速北西 2m/s
視程10km以上
天気現象
なし
気温3℃
湿度60%
気圧1006hPa
METARUUYY 231830Z 31002MPS CAVOK 03/M04 Q1006 R36/61D NOSIG RMK QFE745/0994
過去の天気等 Google飛行場航空写真 Wunderground天気予報

過去48時間のMETAR

飛行場予報(TAF)
発表時間: 5/23 20:00 MSK (5/23 17:00 UTC)
予報対象時間: 23日21時 MSK ~ 24日21時 MSK
風向・風速北北西 3m/s 瞬間風速 9m/s
視程6000m
全天の8割程度の積乱雲 雲底高度 460m
23日21時 MSK ~ 24日9時 MSK に一時的に
視程2100m
天気現象弱いしゅう雪
少しの雲 雲底高度 210m
全天の8割程度の積乱雲 雲底高度 370m
24日7時 MSK ~ 24日9時 MSK に徐々に
風向・風速北西 6m/s 瞬間風速 13m/s
24日9時 MSK ~ 24日21時 MSK に一時的に
視程3100m
天気現象弱いしゅう雨雪
全天の8割程度の積乱雲 雲底高度 370m
TAF UUYY 231700Z 2318/2418 34003G09MPS 6000 BKN015CB
TEMPO 2318/2406 2100 -SHSN FEW007 BKN012CB
BECMG 2404/2406 32006G13MPS
TEMPO 2406/2418 3100 -SHRASN BKN012CB